Time;durP1;ratioP1;P1;durP2;ratioP2;P2;SDS_P1;SDS_P2;PMS_P1;PMS_P2;Temp;Humidity;BMP_temperature;BMP_pressure;BME280_temperature;BME280_humidity;BME280_pressure;Samples;Min_cycle;Max_cycle;Signal;HPM_P1;HPM_P2
2021/09/26 00:00:41;;;;;;;35.50;26.80;;;19.00;99.90;;;19.19;78.59;101284.34;4956469;29;20494;-74
2021/09/26 00:03:10;;;;;;;37.30;26.30;;;18.90;99.90;;;19.25;78.47;101276.97;4957177;29;20054;-74
2021/09/26 00:05:39;;;;;;;35.60;26.67;;;18.90;99.90;;;19.19;78.64;101273.59;4957514;29;20043;-74
2021/09/26 00:08:07;;;;;;;35.17;26.55;;;18.90;99.90;;;18.71;79.04;101219.78;4956960;29;20093;-74
2021/09/26 00:10:36;;;;;;;37.53;27.77;;;18.70;99.90;;;18.73;79.55;101242.94;4957167;29;20071;-74
2021/09/26 00:13:05;;;;;;;35.72;27.73;;;18.60;99.90;;;19.00;79.38;101268.00;4957112;29;20043;-74
2021/09/26 00:15:35;;;;;;;37.25;27.65;;;18.60;99.90;;;19.14;78.95;101275.56;4956781;29;20102;-74
2021/09/26 00:18:03;;;;;;;39.10;26.65;;;18.80;99.90;;;19.03;78.98;101250.94;4957161;29;20051;-74
2021/09/26 00:20:32;;;;;;;35.78;27.50;;;18.80;99.90;;;19.14;78.91;101265.75;4957416;29;20405;-73
2021/09/26 00:23:01;;;;;;;34.70;26.95;;;18.80;99.90;;;19.09;78.94;101261.41;4956716;29;20110;-74
2021/09/26 00:25:30;;;;;;;37.03;28.25;;;18.80;99.90;;;19.04;79.42;101277.69;4956602;29;20070;-74
2021/09/26 00:27:58;;;;;;;37.63;27.73;;;18.70;99.90;;;18.92;79.32;101249.47;4956803;29;20051;-74
2021/09/26 00:30:27;;;;;;;36.17;27.10;;;18.70;99.90;;;19.11;79.02;101267.63;4957054;29;20078;-74
2021/09/26 00:32:56;;;;;;;38.67;27.45;;;18.80;99.90;;;18.93;79.34;101271.78;4956516;29;20118;-74
2021/09/26 00:35:27;;;;;;;38.05;28.27;;;18.70;99.90;;;18.64;80.55;101258.44;4956903;29;20063;-74
2021/09/26 00:37:55;;;;;;;37.78;27.95;;;18.40;99.90;;;18.73;80.59;101266.19;4956598;29;20052;-76
2021/09/26 00:40:23;;;;;;;39.88;27.92;;;18.40;99.90;;;18.75;80.53;101267.91;4956432;29;20476;-74
2021/09/26 00:42:52;;;;;;;37.10;28.77;;;18.40;99.90;;;18.79;80.55;101252.59;4956367;29;20383;-75
2021/09/26 00:45:20;;;;;;;36.67;28.10;;;18.50;99.90;;;18.79;80.70;101276.72;4956532;29;20389;-74
2021/09/26 00:47:49;;;;;;;39.28;28.50;;;18.40;99.90;;;18.57;80.46;101252.38;4938888;29;20051;-74
2021/09/26 00:50:20;;;;;;;37.75;28.55;;;18.40;99.90;;;18.81;80.77;101277.56;4956165;29;20106;-74
2021/09/26 00:52:50;;;;;;;35.08;27.05;;;18.40;99.90;;;18.61;81.12;101255.84;4956171;29;20051;-74
2021/09/26 00:55:19;;;;;;;35.07;26.80;;;18.40;99.90;;;18.37;81.13;101221.75;4956076;29;20051;-74
2021/09/26 00:57:47;;;;;;;37.58;27.63;;;18.30;99.90;;;18.81;80.89;101264.16;4956027;29;20078;-74
2021/09/26 01:00:21;;;;;;;36.28;27.15;;;18.40;99.90;;;18.90;80.08;101253.13;4956300;29;20067;-74
2021/09/26 01:02:50;;;;;;;34.47;27.40;;;18.60;99.90;;;18.85;80.27;101263.97;4956046;29;20101;-74
2021/09/26 01:05:21;;;;;;;37.20;28.65;;;18.60;99.90;;;18.82;80.17;101261.41;4956198;29;20501;-74
2021/09/26 01:08:05;;;;;;;34.08;27.02;;;18.60;99.90;;;18.65;80.20;101231.59;4955983;29;20521;-74
2021/09/26 01:10:46;;;;;;;37.22;27.05;;;18.60;99.90;;;18.87;80.01;101267.50;4956075;28;20047;-74
2021/09/26 01:13:26;;;;;;;41.13;28.20;;;18.60;99.90;;;18.75;80.62;101254.50;4955865;29;20454;-74
2021/09/26 01:16:19;;;;;;;38.88;28.30;;;18.40;99.90;;;18.86;80.54;101255.03;4956548;29;20052;-74
2021/09/26 01:18:57;;;;;;;36.72;28.20;;;18.50;99.90;;;18.97;80.18;101248.44;4955524;29;20051;-74
2021/09/26 01:21:43;;;;;;;39.70;27.20;;;18.60;99.90;;;18.77;80.40;101249.97;4955896;29;20485;-74
2021/09/26 01:25:03;;;;;;;33.47;26.60;;;18.50;99.90;;;18.90;80.24;101239.72;4955904;29;20441;-74
2021/09/26 01:28:19;;;;;;;37.22;26.67;;;18.60;99.90;;;19.00;79.86;101240.28;4955467;29;20102;-74
2021/09/26 01:30:54;;;;;;;37.10;27.67;;;18.70;99.90;;;18.64;80.46;101219.09;4951362;29;20098;-74
2021/09/26 01:33:29;;;;;;;38.17;27.33;;;18.50;99.90;;;18.88;80.40;101230.84;4955753;29;20462;-74
2021/09/26 01:36:03;;;;;;;37.92;26.40;;;18.50;99.90;;;18.80;80.11;101220.38;4955521;29;20138;-74
2021/09/26 01:38:39;;;;;;;40.63;27.25;;;18.60;99.90;;;18.91;79.95;101238.81;4955536;29;20051;-74
2021/09/26 01:41:13;;;;;;;36.92;26.38;;;18.60;99.90;;;18.83;80.47;101230.97;4955572;29;20047;-74
2021/09/26 01:43:45;;;;;;;40.25;27.48;;;18.50;99.90;;;18.84;80.44;101232.75;4955434;29;20086;-74
2021/09/26 01:46:28;;;;;;;36.88;27.10;;;18.60;99.90;;;18.54;80.67;101204.22;4955793;29;20035;-74
2021/09/26 01:49:03;;;;;;;37.42;28.63;;;18.40;99.90;;;18.71;80.87;101243.91;4955331;29;20043;-74
2021/09/26 01:51:38;;;;;;;41.50;28.65;;;18.40;99.90;;;18.74;80.92;101239.31;4955217;29;20047;-74
2021/09/26 01:54:09;;;;;;;35.70;28.23;;;18.40;99.90;;;18.68;81.00;101231.47;4955480;29;20051;-74
2021/09/26 01:56:37;;;;;;;;;;;18.40;99.90;;;18.46;81.42;101216.13;4956352;29;20047;-74
2021/09/26 01:59:07;;;;;;;35.83;26.88;;;18.30;99.90;;;18.28;82.59;101233.59;4955137;29;20396;-74
2021/09/26 02:01:40;;;;;;;35.72;26.52;;;18.00;99.90;;;18.21;83.16;101233.84;4955098;29;20047;-75
2021/09/26 02:04:09;;;;;;;38.03;27.85;;;17.80;99.90;;;18.17;83.56;101235.75;4955507;29;20126;-74
2021/09/26 02:06:38;;;;;;;38.00;27.60;;;17.80;99.90;;;18.20;83.53;101230.28;4955049;29;20067;-74
2021/09/26 02:09:08;;;;;;;34.63;27.88;;;17.80;99.90;;;18.14;83.99;101224.25;4955242;29;20047;-74
2021/09/26 02:11:38;;;;;;;39.05;27.92;;;17.80;99.90;;;18.21;83.83;101226.69;4955321;29;20039;-74
2021/09/26 02:14:07;;;;;;;39.53;28.05;;;17.80;99.90;;;17.68;83.56;101110.50;4955132;29;20445;-74
2021/09/26 02:16:37;;;;;;;39.75;29.00;;;18.00;99.90;;;18.27;83.53;101233.66;4955181;29;20039;-74
2021/09/26 02:19:07;;;;;;;37.72;28.63;;;18.00;99.90;;;18.30;83.46;101220.16;4955064;29;20390;-74
2021/09/26 02:21:36;;;;;;;36.53;29.27;;;18.00;99.90;;;18.50;83.15;101237.44;4955445;28;20047;-74
2021/09/26 02:24:05;;;;;;;37.15;28.05;;;18.10;99.90;;;18.62;82.57;101234.34;4958358;29;20075;-74
2021/09/26 02:26:35;;;;;;;36.90;28.13;;;18.30;99.90;;;18.73;82.23;101234.91;4958900;29;20493;-74
2021/09/26 02:29:04;;;;;;;35.55;28.08;;;18.30;99.90;;;18.73;81.96;101234.91;4941374;29;20063;-74
2021/09/26 02:31:33;;;;;;;37.65;28.20;;;18.40;99.90;;;18.67;81.97;101240.47;4958922;29;20047;-74
2021/09/26 02:34:03;;;;;;;36.47;29.02;;;18.40;99.90;;;18.58;82.20;101237.19;4958606;29;20501;-74
2021/09/26 02:36:31;;;;;;;37.10;28.05;;;18.30;99.90;;;17.78;82.46;101105.75;4958949;29;20102;-74
2021/09/26 02:39:01;;;;;;;36.08;27.30;;;18.20;99.90;;;18.70;82.07;101236.78;4958645;29;20066;-74
2021/09/26 02:41:42;;;;;;;39.33;28.20;;;18.30;99.90;;;18.78;81.69;101234.75;4958941;29;20054;-74
2021/09/26 02:44:18;;;;;;;36.60;28.30;;;18.40;99.90;;;18.46;81.31;101179.50;4957222;29;20047;-74
2021/09/26 02:46:55;;;;;;;34.75;27.52;;;18.40;99.90;;;18.76;81.39;101210.66;4958792;29;20047;-74
2021/09/26 02:49:26;;;;;;;39.10;27.40;;;18.50;99.90;;;18.89;80.96;101233.47;4958582;29;20397;-74
2021/09/26 02:51:55;;;;;;;33.75;26.73;;;18.60;99.90;;;18.00;81.28;101091.66;4958947;29;20091;-74
2021/09/26 02:54:24;;;;;;;38.67;28.05;;;18.40;99.90;;;18.55;82.52;101227.44;4958836;29;20043;-75
2021/09/26 02:56:53;;;;;;;33.45;26.77;;;18.20;99.90;;;18.79;82.05;101225.78;4941372;29;20047;-75
2021/09/26 02:59:22;;;;;;;33.75;26.67;;;18.40;99.90;;;19.00;81.60;101218.84;4958713;29;20134;-74
2021/09/26 03:01:53;;;;;;;33.15;25.45;;;18.50;99.90;;;19.09;81.06;101210.47;4958257;29;20110;-74
2021/09/26 03:04:22;;;;;;;34.72;25.98;;;18.70;99.90;;;19.17;80.66;101216.47;4958157;29;20138;-74
2021/09/26 03:06:53;;;;;;;39.30;26.98;;;18.70;99.90;;;19.27;80.32;101215.22;4958087;29;20054;-74
2021/09/26 03:09:22;;;;;;;36.17;26.92;;;18.80;99.90;;;19.18;79.71;101212.88;4958314;29;20051;-75
2021/09/26 03:11:50;;;;;;;33.15;24.98;;;18.80;99.90;;;19.27;79.72;101204.50;4958029;29;20118;-74
2021/09/26 03:14:19;;;;;;;36.17;27.27;;;18.90;99.90;;;19.24;79.28;101218.88;4957900;29;20043;-75
2021/09/26 03:16:47;;;;;;;33.85;26.60;;;19.00;99.90;;;19.40;79.20;101208.53;4958150;29;20457;-75
2021/09/26 03:19:16;;;;;;;33.95;25.83;;;19.00;99.90;;;19.46;78.91;101216.34;4958054;29;20079;-74
2021/09/26 03:21:44;;;;;;;32.47;25.48;;;19.10;99.90;;;19.50;78.77;101215.31;4957828;29;20556;-74
2021/09/26 03:24:14;;;;;;;32.40;26.02;;;19.10;99.90;;;19.45;78.54;101217.31;4958031;29;20039;-74
2021/09/26 03:26:42;;;;;;;32.93;25.30;;;19.10;99.90;;;19.44;78.16;101189.59;4957796;29;20130;-74
2021/09/26 03:29:10;;;;;;;33.97;26.00;;;19.20;99.90;;;19.23;78.98;101209.09;4957941;29;20078;-74
2021/09/26 03:31:39;;;;;;;33.30;26.02;;;19.00;99.90;;;18.97;80.20;101205.53;4958013;29;20047;-75
2021/09/26 03:34:07;;;;;;;33.20;25.73;;;18.70;99.90;;;18.85;80.32;101199.63;4957472;28;20043;-75
2021/09/26 03:36:36;;;;;;;35.72;25.15;;;18.50;99.90;;;18.91;80.95;101212.00;4940332;29;20047;-74
2021/09/26 03:39:04;;;;;;;36.30;26.02;;;18.50;99.90;;;19.08;80.53;101200.69;4958096;29;20043;-74
2021/09/26 03:41:34;;;;;;;32.15;25.13;;;18.60;99.90;;;19.14;80.42;101211.22;4957500;29;20491;-74
2021/09/26 03:44:03;;;;;;;33.87;25.13;;;18.70;99.90;;;19.23;79.87;101208.19;4957397;29;20098;-75
2021/09/26 03:46:31;;;;;;;33.10;25.77;;;18.80;99.90;;;19.26;79.71;101202.75;4957710;29;20237;-74
2021/09/26 03:49:00;;;;;;;33.10;25.83;;;18.90;99.90;;;19.27;79.56;101197.31;4957525;29;20047;-74
2021/09/26 03:51:28;;;;;;;31.63;25.80;;;18.90;99.90;;;19.34;79.43;101206.94;4957550;29;20110;-74
2021/09/26 03:53:57;;;;;;;30.30;24.83;;;19.00;99.90;;;19.22;79.29;101163.56;4957231;29;20098;-74
2021/09/26 03:56:25;;;;;;;32.38;25.02;;;19.00;99.90;;;19.44;79.17;101202.13;4957303;29;20043;-74
2021/09/26 03:58:55;;;;;;;30.35;24.80;;;19.00;99.90;;;19.09;79.19;101168.44;4956204;29;20051;-75
2021/09/26 04:01:23;;;;;;;31.42;24.95;;;19.00;99.90;;;18.89;80.92;101190.56;4957169;29;20138;-74
2021/09/26 04:03:52;;;;;;;34.55;26.17;;;18.70;99.90;;;18.93;81.09;101197.59;4957370;29;20051;-74
2021/09/26 04:06:20;;;;;;;32.47;24.50;;;18.50;99.90;;;18.94;80.92;101198.47;4957054;29;20078;-74
2021/09/26 04:08:49;;;;;;;30.20;24.42;;;18.60;99.90;;;18.75;81.80;101205.38;4956939;29;20043;-74
2021/09/26 04:11:18;;;;;;;35.13;25.20;;;18.30;99.90;;;18.89;81.64;101205.81;4956943;29;20082;-74
2021/09/26 04:13:47;;;;;;;30.23;25.25;;;18.40;99.90;;;19.01;81.25;101200.00;4956196;29;20058;-74
2021/09/26 04:16:17;;;;;;;32.22;25.13;;;18.50;99.90;;;19.12;80.96;101202.34;4956731;29;20126;-75
2021/09/26 04:18:45;;;;;;;36.40;25.98;;;18.70;99.90;;;19.07;80.82;101201.59;4957141;29;20055;-74
2021/09/26 04:21:17;;;;;;;30.73;24.15;;;18.70;99.90;;;18.86;81.85;101200.53;4956935;29;20106;-74
2021/09/26 04:23:46;;;;;;;30.42;23.77;;;18.40;99.90;;;18.89;81.93;101195.94;4959459;29;20078;-75
2021/09/26 04:26:15;;;;;;;30.50;25.38;;;18.40;99.90;;;18.75;82.41;101198.22;4959315;29;20125;-74
2021/09/26 04:28:43;;;;;;;29.48;25.40;;;18.30;99.90;;;18.50;82.67;101153.50;4957446;29;20065;-74
2021/09/26 04:31:12;;;;;;;33.22;24.77;;;18.30;99.90;;;18.88;82.98;101204.03;4956949;29;20250;-74
2021/09/26 04:33:42;;;;;;;32.50;26.02;;;18.40;99.90;;;18.84;82.88;101223.81;4957105;29;20051;-75
2021/09/26 04:36:11;;;;;;;30.95;24.67;;;18.30;99.90;;;18.82;83.33;101209.59;4956679;29;20453;-75
2021/09/26 04:38:39;;;;;;;34.55;26.10;;;18.30;99.90;;;18.53;82.70;101140.88;4956905;29;20120;-74
2021/09/26 04:41:08;;;;;;;30.73;24.77;;;18.40;99.90;;;19.00;82.45;101203.63;4956516;29;20556;-75
2021/09/26 04:43:36;;;;;;;30.65;25.67;;;18.50;99.90;;;18.94;82.36;101206.50;4956302;29;20134;-74
2021/09/26 04:46:04;;;;;;;32.83;26.40;;;18.50;99.90;;;19.00;82.14;101192.91;4954314;28;20110;-74
2021/09/26 04:48:33;;;;;;;32.75;26.38;;;18.60;99.90;;;19.14;81.95;101216.56;4956237;29;20050;-74
2021/09/26 04:51:03;;;;;;;32.22;25.50;;;18.70;99.90;;;19.16;81.77;101212.91;4956473;29;20048;-75
2021/09/26 04:53:32;;;;;;;30.55;24.17;;;18.80;99.90;;;19.17;81.73;101214.66;4956471;29;20043;-75
2021/09/26 04:56:00;;;;;;;29.17;24.80;;;18.80;99.90;;;19.00;82.09;101192.03;4956145;29;20490;-74
2021/09/26 04:58:29;;;;;;;33.00;25.40;;;18.70;99.90;;;18.79;83.04;101193.63;4956115;29;20043;-74
2021/09/26 05:00:57;;;;;;;31.05;25.52;;;18.40;99.90;;;18.67;84.65;101188.66;4956264;29;20543;-75
2021/09/26 05:03:26;;;;;;;33.85;26.95;;;18.30;99.90;;;18.85;84.29;101180.88;4956554;29;20039;-74
2021/09/26 05:05:54;;;;;;;37.22;26.85;;;18.40;99.90;;;18.96;83.90;101182.31;4956152;29;20086;-74
2021/09/26 05:08:24;;;;;;;35.13;28.70;;;18.50;99.90;;;19.00;83.96;101171.44;4955781;29;20054;-74
2021/09/26 05:10:53;;;;;;;35.72;26.90;;;18.60;99.90;;;19.04;83.42;101174.91;4955898;29;20047;-74
2021/09/26 05:13:21;;;;;;;37.53;27.55;;;18.70;99.90;;;18.56;84.68;101153.31;4956092;29;20062;-74
2021/09/26 05:15:49;;;;;;;35.50;27.83;;;18.40;99.90;;;18.63;85.24;101176.28;4956096;29;20039;-75
2021/09/26 05:18:18;;;;;;;39.30;27.65;;;18.30;99.90;;;18.60;85.71;101177.25;4955916;29;20416;-75
2021/09/26 05:20:47;;;;;;;33.58;28.77;;;18.30;99.90;;;18.40;86.48;101165.38;4955603;29;20099;-74
2021/09/26 05:23:15;;;;;;;35.58;27.77;;;18.10;99.90;;;18.43;86.67;101176.03;4955822;29;20050;-75
2021/09/26 05:25:45;;;;;;;37.72;28.85;;;18.00;99.90;;;18.59;86.53;101172.81;4955697;29;20086;-75
2021/09/26 05:28:13;;;;;;;36.33;29.40;;;18.10;99.90;;;18.70;85.97;101178.72;4955493;29;20058;-74
2021/09/26 05:30:42;;;;;;;35.58;28.05;;;18.30;99.90;;;18.66;86.03;101176.19;4955290;29;20043;-75
2021/09/26 05:33:11;;;;;;;36.47;30.20;;;18.30;99.90;;;18.08;85.87;101077.16;4955743;29;20090;-75
2021/09/26 05:35:40;;;;;;;35.28;27.77;;;18.30;99.90;;;18.80;85.81;101182.84;4938649;29;20043;-75
2021/09/26 05:38:09;;;;;;;35.63;28.77;;;18.40;99.90;;;18.76;85.31;101182.97;4955222;29;20043;-75
2021/09/26 05:40:37;;;;;;;34.92;27.83;;;18.30;99.90;;;18.44;87.00;101181.38;4938099;29;20043;-75
2021/09/26 05:43:07;;;;;;;36.53;28.42;;;18.10;99.90;;;18.46;87.09;101195.59;4955295;29;20095;-75
2021/09/26 05:45:35;;;;;;;36.67;28.75;;;18.10;99.90;;;18.50;87.38;101199.94;4955840;29;20047;-74
2021/09/26 05:48:05;;;;;;;35.90;28.33;;;18.10;99.90;;;18.44;87.58;101204.59;4955856;29;20063;-74
2021/09/26 05:50:33;;;;;;;34.10;27.25;;;18.00;99.90;;;18.54;87.67;101201.56;4955654;29;20110;-75
2021/09/26 05:53:02;;;;;;;35.72;27.85;;;18.00;99.90;;;18.34;88.23;101205.75;4955495;29;20075;-74
2021/09/26 05:55:30;;;;;;;38.13;27.75;;;17.90;99.90;;;18.33;88.33;101193.31;4955102;29;20051;-75
2021/09/26 05:57:59;;;;;;;38.78;28.88;;;17.90;99.90;;;18.39;88.50;101201.16;4954554;28;20098;-75
2021/09/26 06:00:28;;;;;;;34.92;29.67;;;17.90;99.90;;;18.51;87.88;101198.97;4955226;29;20043;-75
2021/09/26 06:02:57;;;;;;;37.30;28.30;;;18.00;99.90;;;18.56;87.48;101197.03;4955389;29;20051;-74
2021/09/26 06:05:26;;;;;;;35.45;28.55;;;18.20;99.90;;;18.49;87.72;101200.84;4955337;29;20039;-74
2021/09/26 06:07:54;;;;;;;45.08;29.17;;;18.10;99.90;;;18.40;88.21;101200.22;4955547;29;20055;-74
2021/09/26 06:10:23;;;;;;;33.25;28.27;;;18.00;99.90;;;18.66;87.52;101201.16;4955158;29;20404;-74
2021/09/26 06:12:51;;;;;;;34.78;28.35;;;18.20;99.90;;;18.73;86.58;101208.09;4954869;29;20570;-74
2021/09/26 06:15:20;;;;;;;35.08;28.25;;;18.30;99.90;;;18.91;86.18;101201.25;4955219;29;20066;-75
2021/09/26 06:17:50;;;;;;;33.53;27.58;;;18.40;99.90;;;19.04;85.63;101212.44;4955335;29;20394;-74
2021/09/26 06:20:18;;;;;;;38.23;29.07;;;18.60;99.90;;;19.02;85.08;101185.69;4955162;29;20106;-74
2021/09/26 06:22:46;;;;;;;33.55;28.92;;;18.70;99.90;;;19.26;84.45;101210.78;4937827;29;20287;-75
2021/09/26 06:25:15;;;;;;;35.00;27.65;;;18.90;99.90;;;19.30;84.00;101210.63;4955392;29;20434;-74
2021/09/26 06:27:43;;;;;;;32.35;27.55;;;19.00;99.90;;;18.97;83.50;101150.09;4954801;29;20102;-75
2021/09/26 06:30:13;;;;;;;36.72;28.05;;;19.00;99.90;;;19.31;83.24;101206.13;4953712;29;20074;-75
2021/09/26 06:32:42;;;;;;;33.10;27.10;;;19.00;99.90;;;19.44;83.02;101227.16;4955316;29;20083;-74
2021/09/26 06:35:12;;;;;;;32.25;27.05;;;19.10;99.90;;;19.32;83.33;101221.28;4954662;29;20126;-75
2021/09/26 06:37:40;;;;;;;39.33;28.63;;;19.00;99.90;;;19.25;83.82;101230.50;4954872;29;20523;-74
2021/09/26 06:40:10;;;;;;;33.13;25.90;;;19.00;99.90;;;19.28;84.28;101241.13;4954423;29;20297;-75
2021/09/26 06:42:40;;;;;;;36.25;27.30;;;19.00;99.90;;;19.28;84.19;101223.22;4954738;29;20051;-75
2021/09/26 06:45:10;;;;;;;36.55;26.90;;;18.90;99.90;;;19.34;84.39;101230.19;4953489;29;20047;-75
2021/09/26 06:47:39;;;;;;;33.97;27.75;;;18.90;99.90;;;19.32;84.46;101219.53;4954943;29;20039;-74
2021/09/26 06:50:11;;;;;;;32.40;27.35;;;19.00;99.90;;;19.47;84.27;101228.88;4954390;29;20177;-74
2021/09/26 06:52:40;;;;;;;32.42;27.27;;;19.00;99.90;;;19.54;84.53;101238.44;4954820;29;20056;-75
2021/09/26 06:55:10;;;;;;;36.97;28.75;;;19.10;99.90;;;19.48;84.02;101226.13;4954750;29;20055;-75
2021/09/26 06:57:38;;;;;;;34.08;27.65;;;19.20;99.90;;;19.67;83.71;101247.81;4956478;29;20106;-75
2021/09/26 07:00:09;;;;;;;36.80;28.63;;;19.30;99.90;;;19.55;83.50;101242.91;4954510;29;20070;-75
2021/09/26 07:02:38;;;;;;;31.85;28.33;;;19.20;99.90;;;19.48;84.00;101255.63;4954410;29;20051;-74
2021/09/26 07:05:09;;;;;;;37.42;29.83;;;19.20;99.90;;;19.20;84.84;101246.72;4954463;29;20039;-75
2021/09/26 07:07:39;;;;;;;37.13;28.90;;;19.00;99.90;;;19.34;85.07;101247.19;4954942;28;20066;-75
2021/09/26 07:10:09;;;;;;;37.15;30.42;;;19.10;99.90;;;19.49;85.21;101240.41;4957920;29;20075;-75
2021/09/26 07:12:37;;;;;;;33.05;28.60;;;19.20;99.90;;;19.54;85.13;101223.22;4957961;29;20051;-75
2021/09/26 07:15:07;;;;;;;34.97;30.45;;;19.40;99.90;;;19.74;84.93;101252.91;4957721;29;20051;-75
2021/09/26 07:17:36;;;;;;;36.47;29.88;;;19.40;99.90;;;19.92;84.32;101251.34;4957894;29;20043;-74
2021/09/26 07:20:08;;;;;;;35.45;29.75;;;19.70;99.90;;;19.89;82.64;101232.69;4957687;29;20059;-75
2021/09/26 07:22:38;;;;;;;36.42;29.98;;;19.80;99.90;;;20.22;82.06;101250.25;4957438;29;20099;-75
2021/09/26 07:25:07;;;;;;;36.28;29.27;;;20.00;99.90;;;20.28;81.59;101250.03;4957870;29;20101;-74
2021/09/26 07:27:36;;;;;;;34.20;28.70;;;20.00;99.90;;;20.33;80.99;101212.22;4957935;29;20047;-75
2021/09/26 07:30:06;;;;;;;32.80;27.90;;;20.10;99.90;;;20.81;79.72;101244.38;4957648;29;20441;-75
2021/09/26 07:32:34;;;;;;;34.83;28.85;;;20.40;99.90;;;20.91;79.36;101245.72;4957487;29;20148;-75
2021/09/26 07:35:03;;;;;;;33.08;28.23;;;20.50;99.90;;;21.31;78.46;101251.25;4957531;29;20117;-75
2021/09/26 07:37:32;;;;;;;33.70;29.55;;;20.90;99.90;;;21.64;77.25;101249.78;4957464;29;20043;-75
2021/09/26 07:40:02;;;;;;;33.42;29.02;;;21.30;99.90;;;21.87;75.83;101252.38;4957595;29;20498;-75
2021/09/26 07:42:30;;;;;;;34.40;28.83;;;21.50;99.90;;;21.91;74.88;101228.88;4958018;29;20073;-74
2021/09/26 07:45:02;;;;;;;32.35;28.83;;;21.80;99.90;;;22.17;73.71;101256.38;4957433;29;20131;-74
2021/09/26 07:47:31;;;;;;;34.03;28.17;;;21.90;99.90;;;22.27;73.86;101268.47;4940585;29;20051;-75
2021/09/26 07:50:00;;;;;;;32.33;28.17;;;22.00;99.90;;;22.35;73.57;101271.69;4957415;29;20067;-75
2021/09/26 07:52:29;;;;;;;35.72;29.50;;;22.00;99.90;;;22.21;73.44;101260.69;4957359;29;20486;-75
2021/09/26 07:54:58;;;;;;;34.97;28.42;;;22.00;99.90;;;22.24;73.00;101270.44;4957673;29;20473;-75
2021/09/26 07:57:28;;;;;;;32.53;28.05;;;22.00;99.90;;;22.39;72.82;101292.19;4957349;29;20489;-75
2021/09/26 07:59:57;;;;;;;32.90;28.38;;;22.00;99.90;;;22.21;72.88;101275.97;4957544;29;20473;-75
2021/09/26 08:02:26;;;;;;;31.73;27.40;;;22.10;99.90;;;22.52;73.29;101305.06;4956969;29;20044;-75
2021/09/26 08:04:55;;;;;;;37.85;26.48;;;22.10;99.90;;;22.50;73.10;101304.28;4957355;29;20049;-75
2021/09/26 08:07:23;;;;;;;33.67;26.20;;;22.20;99.90;;;22.56;72.62;101295.91;4956948;29;20127;-75
2021/09/26 08:09:52;;;;;;;29.38;24.92;;;22.20;99.90;;;22.52;72.26;101294.28;4955898;29;20051;-75
2021/09/26 08:12:20;;;;;;;31.33;25.88;;;22.20;99.90;;;22.44;72.34;101275.78;4956710;29;20074;-75
2021/09/26 08:14:50;;;;;;;34.60;25.92;;;22.20;99.90;;;22.50;72.29;101282.69;4956676;29;20098;-75
2021/09/26 08:17:18;;;;;;;29.25;26.13;;;22.20;99.90;;;22.63;72.28;101305.50;4957117;29;20043;-75
2021/09/26 08:19:47;;;;;;;32.50;27.38;;;22.30;99.90;;;22.65;72.02;101295.53;4955556;28;20052;-75
2021/09/26 08:22:17;;;;;;;29.35;25.90;;;22.30;99.90;;;22.66;72.87;101300.84;4956598;29;20070;-75
2021/09/26 08:24:46;;;;;;;42.33;27.65;;;22.30;99.90;;;22.54;72.39;101297.78;4957212;29;20444;-75
2021/09/26 08:27:17;;;;;;;34.85;26.95;;;22.30;99.90;;;22.69;72.49;101308.78;4939662;29;20105;-75
2021/09/26 08:29:47;;;;;;;33.03;27.65;;;22.30;99.90;;;22.68;71.30;101306.16;4955628;29;20478;-75
2021/09/26 08:32:16;;;;;;;35.03;26.52;;;22.40;99.90;;;22.58;71.09;101307.53;4956720;29;20075;-75
2021/09/26 08:34:45;;;;;;;33.38;26.30;;;22.30;99.90;;;22.68;71.64;101298.06;4956759;29;20055;-75
2021/09/26 08:37:13;;;;;;;30.50;26.42;;;22.30;99.90;;;22.58;71.18;101307.53;4956972;29;20067;-75
2021/09/26 08:39:42;;;;;;;31.63;26.40;;;22.30;99.90;;;22.54;70.96;101311.28;4955379;29;20406;-75
2021/09/26 08:42:10;;;;;;;31.42;27.00;;;22.20;99.90;;;22.49;71.18;101300.72;4956514;29;20126;-75
2021/09/26 08:44:39;;;;;;;32.05;27.40;;;22.20;99.90;;;22.58;71.11;101304.81;4956295;29;20047;-75
2021/09/26 08:47:08;;;;;;;34.25;26.90;;;22.20;99.90;;;22.39;71.53;101292.19;4956175;29;20098;-75
2021/09/26 08:49:38;;;;;;;36.38;27.83;;;22.10;99.90;;;22.42;71.64;101305.50;4956137;29;20047;-75
2021/09/26 08:52:08;;;;;;;30.92;25.67;;;22.20;99.90;;;22.37;71.79;101312.06;4955938;29;20058;-75
2021/09/26 08:54:36;;;;;;;32.05;28.02;;;22.10;99.90;;;22.28;71.92;101307.97;4956046;29;20497;-75
2021/09/26 08:57:05;;;;;;;34.35;27.52;;;22.00;99.90;;;22.31;72.31;101306.94;4954970;29;20106;-75
2021/09/26 08:59:34;;;;;;;29.85;26.05;;;22.00;99.90;;;22.30;72.50;101302.50;4956218;29;20047;-75
2021/09/26 09:02:03;;;;;;;30.95;26.10;;;22.00;99.90;;;22.29;72.43;101308.84;4956590;29;20401;-75
2021/09/26 09:04:39;;;;;;;31.90;26.80;;;22.00;99.90;;;22.32;72.77;101314.06;4938680;29;20051;-75
2021/09/26 09:07:10;;;;;;;31.73;26.42;;;22.00;99.90;;;22.29;72.38;101333.09;4938772;29;20552;-75
2021/09/26 09:09:52;;;;;;;31.45;26.58;;;22.00;99.90;;;22.32;72.28;101328.44;4956008;29;20047;-75
2021/09/26 09:12:27;;;;;;;31.00;26.40;;;22.00;99.90;;;22.35;72.04;101322.94;4955819;29;20051;-75
2021/09/26 09:15:00;;;;;;;30.30;25.58;;;22.00;99.90;;;22.32;71.92;101339.22;4956036;29;20047;-75
2021/09/26 09:17:33;;;;;;;30.42;26.85;;;21.90;99.90;;;22.35;72.57;101332.81;4956218;29;20126;-75
2021/09/26 09:20:23;;;;;;;34.95;27.00;;;22.00;99.90;;;22.36;73.02;101326.47;4955890;29;20055;-75
2021/09/26 09:22:56;;;;;;;29.45;25.15;;;22.00;99.90;;;22.34;73.04;101328.38;4955615;29;20439;-74
2021/09/26 09:25:38;;;;;;;30.98;25.48;;;22.00;99.90;;;22.42;72.93;101348.66;4938502;29;20098;-75
2021/09/26 09:28:10;;;;;;;30.25;25.98;;;22.10;99.90;;;22.39;73.37;101342.53;4955461;29;20477;-75
2021/09/26 09:30:41;;;;;;;35.67;27.50;;;22.00;99.90;;;22.27;73.25;101329.59;4955731;29;20098;-75
2021/09/26 09:33:11;;;;;;;31.67;26.92;;;22.00;99.90;;;22.29;73.81;101342.06;4955268;28;20047;-75
2021/09/26 09:35:45;;;;;;;34.15;27.92;;;22.00;99.90;;;22.42;74.57;101332.47;4955673;29;20047;-75
2021/09/26 09:38:18;;;;;;;29.92;26.48;;;22.10;99.90;;;22.42;74.00;101336.97;4938374;29;20386;-75
2021/09/26 09:40:50;;;;;;;32.50;27.38;;;22.00;99.90;;;22.38;73.91;101341.66;4955395;29;20047;-75
2021/09/26 09:43:19;;;;;;;34.13;27.92;;;22.10;99.90;;;22.42;73.63;101353.16;4938173;29;20073;-75
2021/09/26 09:45:51;;;;;;;35.85;27.75;;;22.10;99.90;;;22.51;73.56;101347.38;4938199;29;20457;-75
2021/09/26 09:48:21;;;;;;;30.60;26.38;;;22.10;99.90;;;22.53;73.84;101334.66;4955543;29;20176;-75
2021/09/26 09:50:59;;;;;;;37.65;27.63;;;22.20;99.90;;;22.60;73.68;101335.31;4955195;29;20048;-75
2021/09/26 09:53:36;;;;;;;34.15;27.17;;;22.30;99.90;;;22.74;72.87;101343.63;4955425;29;20039;-75
2021/09/26 09:56:18;;;;;;;30.50;25.98;;;22.40;99.90;;;22.79;71.82;101337.06;4955109;29;20501;-75
2021/09/26 09:58:49;;;;;;;33.28;26.35;;;22.50;99.90;;;22.57;71.82;101284.22;4955138;29;20134;-75
2021/09/26 10:01:28;;;;;;;33.47;27.33;;;22.60;99.90;;;23.01;71.63;101337.81;4953955;29;20058;-75
2021/09/26 10:03:58;;;;;;;29.88;25.77;;;22.70;99.90;;;23.31;71.99;101346.25;4955092;29;20486;-75
2021/09/26 10:06:36;;;;;;;32.70;27.02;;;23.00;99.90;;;23.46;70.06;101348.19;4954850;29;20039;-75
2021/09/26 10:09:23;;;;;;;32.90;25.85;;;23.10;99.90;;;23.62;69.42;101354.56;4955221;29;20046;-75
2021/09/26 10:11:56;;;;;;;31.73;25.48;;;23.30;99.90;;;23.91;68.83;101353.09;4955166;29;20094;-75
2021/09/26 10:14:27;;;;;;;29.27;24.35;;;23.60;99.90;;;24.17;68.64;101353.53;4955527;29;20043;-75